Kezdőlap
METAR-TAF:

METAR-TAF

Repülőterek :

Kuusamo, Finnország

földrajzi szélesség: 65-58N, földrajzi hosszúság: 029-11E, magasság: 262 m

Jelenlegi meteorológiai megfigyelések

A jelentés 14 perccel ezelõtt készült, 21:50 UTC
Kelet-délkeleti szél 6 kt
Hőmérséklet -1°C
Páratartalom 100%
Légköri nyomás 1030 hPa
Látótávolság: 8000 m
Borult 200 lábon
enyhe havazás

METAR: EFKS 182150Z AUTO 12006KT 8000 -SN OVC002 M01/M01 Q1030

Idő: 00:04 (22:04 UTC)

Előrejelzés

A jelentés 10 órával és 35 perccel ezelõtt készült, 11:29 UTC
Az előrejelzés 18-én 12 óra UTC és 18-én 14 óra UTC között érvényes
Kelet-délkeleti szél 7 kt
Látótávolság 10 km, vagy több
Borult 500 lábon
18-én 12 óra UTC és 18-én 14 óra UTC között ideiglenes
Látótávolság: 4500 m
Borult 400 lábon
enyhe havazás

TAF: EFKS 181129Z 1812/1814 12007KT 9999 OVC005 TEMPO 1812/1814 4500 -SN OVC004

Meteorológiai megfigyelések és előrejelzések több, mint 4000 repülőtéren (METAR és TAF jelentéseket).

A térképen piros és sárga pontok jelzik az elérhető meteorológiai állomásokat.

Mozgassa az egeret a pont fölött, hogy megjelenjen az állomás neve.

Azután kattintson az időjárási megfigyelések és előrejelzések megtekintéséhez.

A térkép megváltoztatása: kattintson a fekete keresztel jelölt zöld gombra ráközelítéshez, a vonallal jelölt zöld gombra távolításhoz, vagy a zöld nyilakra a szomszédos térképek eléréséhez.


METAR-TAF: